Racecast

Austen Hvidsten

Bella Vista (CA) · 12 · CVCCA D2SJS D2 · Compare head to head

Athlete rating 126.3 2015 TF season
Best race 127.4 TF
Races 55
Seasons 5 2011 — 2015

RankedNation #4080·CA #586·CA D2 #251·SJS #63·SJS D2 #22·CVC #12·Team #11 ?

Speed rating — all races

Cross Country

XC speed rating

2014 XC 107.4

Bella Vista (CA) · Grade 12

Date Meet Event Result Place Rating Difficulty PR/SR Flags
2014-09-27 Elkhorn Golf Course 3218m 11:35 22nd · 6th on team 107.4 -0.019 ★PR ★CR SR CSR RSR

2011 XC 109.0

Bella Vista (CA) · Grade 9

Date Meet Event Result Place Rating Difficulty PR/SR Flags
2011-11-11 Willow Hills Reservoir Course 3400m 12:36 12th · 3rd on team 112.1 +0.043 ★PR ★CR R SR CSR RSR
2011-11-05 Calaveras County Fairgrounds 3218m 12:33 11th · 2nd on team 108.9 +0.084 PR ★CR R SR CSR RSR
2011-10-28 Willow Hills Reservoir Course 3200m 12:59.1 11th · 4th on team 105.9 +0.088 ★PR ★CR R SR CSR RSR

Track & Field

TF speed rating

2015 TF 124.0

Bella Vista (CA) · Grade 12

Date Meet Event Result Place Rating Difficulty PR/SR Flags
2015-05-15 CVC Finals 800m 2:01.02 8th · 1st on team 126.0 -0.024
2015-05-13 CVC Trials 800m 2:02.08 6th · 2nd on team 125.0 -0.024
2015-05-02 Sacramento Meet of Champions 800m 2:01.61 28th · 1st on team 124.6 -0.034
2015-04-29 CVC Center Meet 3A 800m 2:00.9 3rd · 1st on team 126.6 -0.025
2015-04-25 Bella Vista Bronco Invitational 800m 2:01.24 5th · 1st on team 124.4 -0.036
2015-04-08 CVC Center Meet 2B 400m 53.32 3rd · 1st on team -0.022 SR
2015-03-27 Bronco Roundup Distance Carnival 800m 1:58.59 4th · 1st on team 127.4 -0.036 ★PR ★R SR RSR
2015-03-21 Dublin Distance Fiesta 800m 2:03.45 24th · 2nd on team 121.7 -0.038 SR
2015-03-18 CVC Center Meet 1B 1600m 4:48.56 7th · 3rd on team 118.1 -0.036 ★PR SR
2015-03-14 Sturgeon Invitational (formerly the King Gilbert Invite) 800m 2:03.77 6th · 1st on team 122.4 -0.027 SR RSR
2015-02-25 Red and Black Intrasquad 400m 53.95 1st · 1st on team -0.036 SR

2014 TF 121.9

Bella Vista (CA) · Grade 11

Date Meet Event Result Place Rating Difficulty PR/SR Flags
2014-05-28 Bella Vista Distance Time Trial 1600m 4:59.1 3rd · 3rd on team 114.4 -0.036 PR SR
2014-05-21 Sac Joaquin Section Division II-III Prelims 800m 2:02.47 13th · 2nd on team 122.8 -0.036
2014-05-16 Capital Valley Conference Finals 800m 2:03.44 3rd · 1st on team 122.9 -0.028
2014-05-09 Nevada Union Invitational 800m 2:13.2 19th · 2nd on team 115.9 -0.015
2014-05-03 Sacramento Meet of Champions 800m 2:00.46 13th · 1st on team 125.6 -0.034 PR R SR RSR
2014-04-30 CVC Center Meet 3 800m 2:00.74 2nd · 1st on team 125.2 -0.036
2014-04-26 Bella Vista Bronco Invitational 800m 2:01.73 7th · 1st on team 123.5 -0.036
2014-04-09 CVC Center Meet 2 800m 2:02.01 3rd · 2nd on team 125.1 -0.025
2014-03-28 Bronco Roundup Distance Carnival 800m 2:00.52 5th · 1st on team 125.5 -0.036 PR R SR RSR
2014-03-19 CVC Center Meet 1 400m 53.15 4th · 2nd on team -0.020 SR
2014-03-15 Dublin Distance Fiesta 800m 2:03.29 14th · 2nd on team 121.7 -0.038
2014-03-08 King/Gilbert Invitational 800m 2:03.05 7th · 2nd on team 123.1 -0.027 PR R SR RSR
2014-02-26 Bella Vista Intra-Squad 800m 2:09.35 3rd · 3rd on team 116.7 -0.036 PR R SR RSR

2013 TF 109.2

Bella Vista (CA) · Grade 10

Date Meet Event Result Place Rating Difficulty PR/SR Flags
2013-05-15 Sac Joaquin Section Division II-III Prelims 400m 52.43 15th · 2nd on team -0.036
2013-05-10 CVC Finals 400m 52.33 2nd · 2nd on team -0.025 SR
2013-05-04 Frosh/Soph Sac Town Races 400m 52.61 4th · 1st on team -0.024
2013-04-17 CVC Center Meet 3 400m 52.63 2nd · 2nd on team -0.020
2013-04-17 CVC Center Meet 3 200m 23.59 7th · 3rd on team -0.020 ★PR SR
2013-04-13 Bella Vista Bronco Invitational 400m 52.47 15th · 3rd on team -0.036 SR
2013-04-13 Bella Vista Bronco Invitational 200m 24.69 24th · 3rd on team -0.036
2013-03-22 Bronco Roundup Distance Carnival 800m 2:13.79 10th · 1st on team 112.9 -0.036 PR R SR RSR
2013-03-20 CVC Center Meet 2 200m 24.55 4th · 2nd on team -0.028
2013-03-20 CVC Center Meet 2 400m 54.51 2nd · 2nd on team -0.028
2013-03-16 Depth Charge 200m 24.55 14th · 2nd on team -0.021 SR
2013-03-16 Depth Charge 400m 53.16 16th · 2nd on team -0.021 SR
2013-03-06 CVC Center Meet 1 400m 53.76 3rd · 3rd on team -0.036 SR
2013-03-06 CVC Center Meet 1 200m 24.6 6th · 3rd on team -0.036 SR
2013-02-27 Red and Black Intrasquad Pentathlon 800m 2:22.03 4th · 4th on team 105.5 -0.036 PR SR RSR
2013-02-27 Red and Black Intrasquad Pentathlon 100m 12.59 5th · 5th on team -0.036 ★PR SR

2012 TF

Bella Vista (CA) · Grade 9

Date Meet Event Result Place Rating Difficulty PR/SR Flags
2012-05-16 Sac Joaquin Section Division II-III Prelims 400m 52.19 16th · 2nd on team -0.036 ★PR SR
2012-05-11 Capital Valley Conference Finals 400m 52.26 3rd · 2nd on team -0.020 PR SR
2012-05-11 Capital Valley Conference Finals 200m 23.73 4th · 2nd on team -0.020 PR SR
2012-05-05 Bella Vista Bronco Invitational 400m 54.37 2nd · 1st on team -0.036
2012-05-05 Bella Vista Bronco Invitational 200m 24.5 4th · 2nd on team -0.036 PR SR
2012-04-18 CVC Center Meet 3 400m 53.7 1st · 1st on team -0.028 PR SR
2012-04-14 Depth Charge 400m 53.96 3rd · 1st on team -0.021 PR SR
2012-03-28 CVC Center Meet 2 400m 55 1st · 1st on team -0.025 PR SR
2012-03-21 CVC Center Meet 1 400m 55.37 1st · 1st on team -0.036
2012-03-10 Bob King - Don Gilbert Invitational 400m 55.18 7th · 1st on team -0.027 PR SR
2012-03-07 Bella Vista - Ponderosa Dual 400m 55.39 1st · 1st on team -0.036 PR SR